createdAt,value
2022-12-18T00:00:25.645Z,5.85
2022-12-18T00:02:54.573Z,6.95
2022-12-18T00:05:23.500Z,4.95
2022-12-18T00:07:52.317Z,5.53
2022-12-18T00:10:21.117Z,4.80
2022-12-18T00:12:49.932Z,4.15
2022-12-18T00:15:18.791Z,4.22
2022-12-18T00:17:48.825Z,3.30
2022-12-18T00:20:22.745Z,4.13
2022-12-18T00:22:51.534Z,5.18
2022-12-18T00:25:20.367Z,4.40
2022-12-18T00:27:49.185Z,3.65
2022-12-18T00:30:18.185Z,4.57
2022-12-18T00:32:48.376Z,3.83
2022-12-18T00:35:17.454Z,3.40
2022-12-18T00:37:46.280Z,4.13
2022-12-18T00:40:15.054Z,4.47
2022-12-18T00:42:57.949Z,3.63
2022-12-18T00:45:30.419Z,3.87
2022-12-18T00:48:00.656Z,3.50
2022-12-18T00:50:29.863Z,4.05
2022-12-18T00:52:58.665Z,4.13
2022-12-18T00:55:27.856Z,4.25
2022-12-18T00:57:56.852Z,4.63
2022-12-18T01:00:26.199Z,4.18
2022-12-18T01:02:55.069Z,4.20
2022-12-18T01:05:25.120Z,3.65
2022-12-18T01:07:54.207Z,3.55
2022-12-18T01:10:23.163Z,3.13
2022-12-18T01:12:52.045Z,3.40
2022-12-18T01:15:21.504Z,2.78
2022-12-18T01:17:50.356Z,3.17
2022-12-18T01:20:19.196Z,3.88
2022-12-18T01:22:49.524Z,3.87
2022-12-18T01:25:18.541Z,3.22
2022-12-18T01:27:47.465Z,3.42
2022-12-18T01:30:16.317Z,3.20
2022-12-18T01:32:45.169Z,3.70
2022-12-18T01:35:13.990Z,3.03
2022-12-18T01:37:42.817Z,3.55
2022-12-18T01:40:13.844Z,3.38
2022-12-18T01:42:42.726Z,2.95
2022-12-18T01:45:28.602Z,3.22
2022-12-18T01:47:59.818Z,3.37
2022-12-18T01:50:34.127Z,3.25
2022-12-18T01:53:09.079Z,3.65
2022-12-18T01:55:47.374Z,3.25
2022-12-18T01:58:16.434Z,4.22
2022-12-18T02:00:45.839Z,3.50
2022-12-18T02:03:15.436Z,3.60
2022-12-18T02:05:50.014Z,3.35
2022-12-18T02:08:23.725Z,3.20
2022-12-18T02:11:04.655Z,2.85
2022-12-18T02:13:44.281Z,2.53
2022-12-18T02:16:24.328Z,3.28
2022-12-18T02:18:59.847Z,2.95
2022-12-18T02:21:45.759Z,2.92
2022-12-18T02:24:30.057Z,3.25
2022-12-18T02:27:03.619Z,3.30
2022-12-18T02:29:38.020Z,3.22
2022-12-18T02:32:13.300Z,3.17
2022-12-18T02:34:43.419Z,4.50
2022-12-18T02:37:15.279Z,4.80
2022-12-18T02:39:46.284Z,5.33
2022-12-18T02:42:16.895Z,4.85
2022-12-18T02:44:46.587Z,4.55
2022-12-18T02:47:17.295Z,3.45
2022-12-18T02:49:57.287Z,3.63
2022-12-18T02:52:35.635Z,3.10
2022-12-18T02:55:19.887Z,3.05
2022-12-18T02:57:55.654Z,4.03
2022-12-18T03:00:29.789Z,4.32
2022-12-18T03:03:05.519Z,4.40
2022-12-18T03:05:40.219Z,4.43
2022-12-18T03:08:14.426Z,3.90
2022-12-18T03:10:52.098Z,4.28
2022-12-18T03:13:33.668Z,3.92
2022-12-18T03:16:03.911Z,3.35
2022-12-18T03:18:39.382Z,3.70
2022-12-18T03:21:10.506Z,2.92
2022-12-18T03:23:43.966Z,3.10
2022-12-18T03:26:16.514Z,3.50
2022-12-18T03:28:53.799Z,3.60
2022-12-18T03:31:25.415Z,3.03
2022-12-18T03:33:57.229Z,3.58
2022-12-18T03:36:26.409Z,5.80
2022-12-18T03:38:55.349Z,7.05
2022-12-18T03:41:33.458Z,6.90
2022-12-18T03:44:13.041Z,6.17
2022-12-18T03:46:48.409Z,5.85
2022-12-18T03:49:26.274Z,6.35
2022-12-18T03:52:03.980Z,5.68
2022-12-18T03:54:33.908Z,5.78
2022-12-18T03:57:08.118Z,6.40
2022-12-18T03:59:40.272Z,6.15
2022-12-18T04:02:10.828Z,5.88
2022-12-18T04:04:41.326Z,5.32
2022-12-18T04:07:10.903Z,5.00
2022-12-18T04:09:39.863Z,5.43
2022-12-18T04:12:11.702Z,5.75
2022-12-18T04:14:41.923Z,4.30
2022-12-18T04:17:10.810Z,4.45
2022-12-18T04:19:39.647Z,4.32
2022-12-18T04:22:10.992Z,4.73
2022-12-18T04:24:40.182Z,4.70
2022-12-18T04:27:09.132Z,4.13
2022-12-18T04:29:37.935Z,4.18
2022-12-18T04:32:08.264Z,4.80
2022-12-18T04:34:37.105Z,4.37
2022-12-18T04:37:05.944Z,4.60
2022-12-18T04:39:34.830Z,5.32
2022-12-18T04:42:03.695Z,4.55
2022-12-18T04:44:32.533Z,4.50
2022-12-18T04:47:01.379Z,4.40
2022-12-18T04:49:31.322Z,4.18
2022-12-18T04:52:00.123Z,4.00
2022-12-18T04:54:29.161Z,4.57
2022-12-18T04:56:57.981Z,4.57
2022-12-18T04:59:26.815Z,4.87
2022-12-18T05:01:55.793Z,5.03
2022-12-18T05:04:24.762Z,4.88
2022-12-18T05:06:54.712Z,3.80
2022-12-18T05:09:23.844Z,4.70
2022-12-18T05:11:52.695Z,4.00
2022-12-18T05:14:21.724Z,4.72
2022-12-18T05:16:50.563Z,3.72
2022-12-18T05:19:19.612Z,4.38
2022-12-18T05:21:48.444Z,4.53
2022-12-18T05:24:18.577Z,3.73
2022-12-18T05:26:47.421Z,4.88
2022-12-18T05:29:16.253Z,4.80
2022-12-18T05:31:45.105Z,4.82
2022-12-18T05:34:14.176Z,4.25
2022-12-18T05:36:43.696Z,4.40
2022-12-18T05:39:13.683Z,3.90
2022-12-18T05:41:43.822Z,4.00
2022-12-18T05:44:13.029Z,3.65
2022-12-18T05:46:41.889Z,4.70
2022-12-18T05:49:10.764Z,3.83
2022-12-18T05:51:39.649Z,4.05
2022-12-18T05:54:09.303Z,5.53
2022-12-18T05:56:38.426Z,5.25
2022-12-18T05:59:08.406Z,4.82
2022-12-18T06:01:37.650Z,4.67
2022-12-18T06:04:06.960Z,3.90
2022-12-18T06:06:36.025Z,4.30
2022-12-18T06:09:09.470Z,5.75
2022-12-18T06:11:39.217Z,4.93
2022-12-18T06:14:09.909Z,4.07
2022-12-18T06:16:38.795Z,4.65
2022-12-18T06:19:08.454Z,5.28
2022-12-18T06:21:37.526Z,4.75
2022-12-18T06:24:06.897Z,4.57
2022-12-18T06:26:35.839Z,4.47
2022-12-18T06:29:04.674Z,4.63
2022-12-18T06:31:35.028Z,4.93
2022-12-18T06:34:06.673Z,3.83
2022-12-18T06:36:35.743Z,5.05
2022-12-18T06:39:04.972Z,4.27
2022-12-18T06:41:33.791Z,3.97
2022-12-18T06:44:02.610Z,4.53
2022-12-18T06:46:31.668Z,5.00
2022-12-18T06:49:01.634Z,4.68
2022-12-18T06:51:30.472Z,4.93
2022-12-18T06:53:59.339Z,4.88
2022-12-18T06:56:28.207Z,4.72
2022-12-18T06:58:57.234Z,5.20
2022-12-18T07:01:26.112Z,4.90
2022-12-18T07:03:55.926Z,5.60
2022-12-18T07:06:28.376Z,4.82
2022-12-18T07:08:57.801Z,4.68
2022-12-18T07:11:27.693Z,4.55
2022-12-18T07:13:56.621Z,5.10
2022-12-18T07:16:26.001Z,5.63
2022-12-18T07:18:56.279Z,7.28
2022-12-18T07:21:26.999Z,5.22
2022-12-18T07:23:55.817Z,5.47
2022-12-18T07:26:25.182Z,4.70
2022-12-18T07:28:58.593Z,6.43
2022-12-18T07:31:29.027Z,6.32
2022-12-18T07:33:58.182Z,7.18
2022-12-18T07:36:28.181Z,6.57
2022-12-18T07:38:57.142Z,5.68
2022-12-18T07:41:26.178Z,6.27
2022-12-18T07:43:55.076Z,5.55
2022-12-18T07:46:24.420Z,5.18
2022-12-18T07:48:53.292Z,5.15
2022-12-18T07:51:22.258Z,5.53
2022-12-18T07:53:52.713Z,6.07
2022-12-18T07:56:27.694Z,4.85
2022-12-18T07:58:57.740Z,4.90
2022-12-18T08:01:26.689Z,5.20
2022-12-18T08:03:55.700Z,6.75
2022-12-18T08:06:24.955Z,5.57
2022-12-18T08:08:56.416Z,6.90
2022-12-18T08:11:27.889Z,6.20
2022-12-18T08:13:57.618Z,6.25
2022-12-18T08:16:26.685Z,5.88
2022-12-18T08:18:55.889Z,6.70
2022-12-18T08:21:27.697Z,6.47
2022-12-18T08:24:02.720Z,5.95
2022-12-18T08:26:33.600Z,6.38
2022-12-18T08:29:02.807Z,6.85
2022-12-18T08:31:34.249Z,6.80
2022-12-18T08:34:03.145Z,7.63
2022-12-18T08:36:31.711Z,8.68
2022-12-18T08:39:01.654Z,10.68
2022-12-18T08:41:30.533Z,10.63
2022-12-18T08:44:17.247Z,11.47
2022-12-18T08:46:46.684Z,12.40
2022-12-18T08:49:15.876Z,11.85
2022-12-18T08:51:44.703Z,11.18
2022-12-18T08:54:15.935Z,9.88
2022-12-18T08:56:45.017Z,8.17
2022-12-18T08:59:19.317Z,7.90
2022-12-18T09:01:49.508Z,7.78
2022-12-18T09:04:18.745Z,7.68
2022-12-18T09:06:47.583Z,7.70
2022-12-18T09:09:17.580Z,7.43
2022-12-18T09:11:46.504Z,7.22
2022-12-18T09:14:15.385Z,7.90
2022-12-18T09:16:44.210Z,7.32
2022-12-18T09:19:13.221Z,7.22
2022-12-18T09:21:46.263Z,9.03
2022-12-18T09:24:18.955Z,7.88
2022-12-18T09:26:47.937Z,6.85
2022-12-18T09:29:18.789Z,5.82
2022-12-18T09:31:48.129Z,5.28
2022-12-18T09:34:16.734Z,6.43
2022-12-18T09:36:45.648Z,5.63
2022-12-18T09:39:17.977Z,6.45
2022-12-18T09:41:54.830Z,6.07
2022-12-18T09:44:27.397Z,6.07
2022-12-18T09:47:07.225Z,6.77
2022-12-18T09:49:41.192Z,5.88
2022-12-18T09:52:17.336Z,6.50
2022-12-18T09:54:52.871Z,6.47
2022-12-18T09:57:25.789Z,8.50
2022-12-18T09:59:59.520Z,10.20
2022-12-18T10:02:29.652Z,9.43
2022-12-18T10:05:13.680Z,11.15
2022-12-18T10:08:01.891Z,12.38
2022-12-18T10:10:42.077Z,10.45
2022-12-18T10:13:23.856Z,9.90
2022-12-18T10:16:08.860Z,11.80
2022-12-18T10:19:01.543Z,11.75
2022-12-18T10:21:36.340Z,11.15
2022-12-18T10:24:17.993Z,11.32
2022-12-18T10:26:49.209Z,8.70
2022-12-18T10:29:19.526Z,8.02
2022-12-18T10:31:48.358Z,9.57
2022-12-18T10:34:17.384Z,11.40
2022-12-18T10:36:46.352Z,11.63
2022-12-18T10:39:21.418Z,10.50
2022-12-18T10:41:51.400Z,10.93
2022-12-18T10:44:23.699Z,10.82
2022-12-18T10:46:57.221Z,11.40
2022-12-18T10:49:28.780Z,11.27
2022-12-18T10:52:10.169Z,11.47
2022-12-18T10:54:39.361Z,11.38
2022-12-18T10:57:31.827Z,10.70
2022-12-18T11:00:22.048Z,10.68
2022-12-18T11:02:51.036Z,10.52
2022-12-18T11:05:32.251Z,8.57
2022-12-18T11:08:02.510Z,10.20
2022-12-18T11:10:34.857Z,8.93
2022-12-18T11:13:20.435Z,10.10
2022-12-18T11:15:49.513Z,8.32
2022-12-18T11:18:22.519Z,12.07
2022-12-18T11:20:58.742Z,9.13
2022-12-18T11:23:28.954Z,11.23
2022-12-18T11:26:00.652Z,12.25
2022-12-18T11:28:50.120Z,13.68
2022-12-18T11:31:26.737Z,8.90
2022-12-18T11:34:28.755Z,13.63
2022-12-18T11:36:58.314Z,12.35
2022-12-18T11:39:37.709Z,9.70
2022-12-18T11:42:15.369Z,9.10
2022-12-18T11:44:51.179Z,9.60
2022-12-18T11:47:33.151Z,11.93
2022-12-18T11:50:05.317Z,12.98
2022-12-18T11:52:39.755Z,19.60
2022-12-18T11:55:16.305Z,11.65
2022-12-18T11:57:57.070Z,11.07
2022-12-18T12:00:27.487Z,14.18
2022-12-18T12:03:44.640Z,10.95
2022-12-18T12:06:22.007Z,9.98
2022-12-18T12:09:05.880Z,10.48
2022-12-18T12:11:46.066Z,10.87
2022-12-18T12:14:45.374Z,13.07
2022-12-18T12:17:26.084Z,11.48
2022-12-18T12:20:04.034Z,11.10
2022-12-18T12:22:41.988Z,10.95
2022-12-18T12:25:30.054Z,10.90
2022-12-18T12:28:15.576Z,10.73
2022-12-18T12:30:58.625Z,9.98
2022-12-18T12:33:42.627Z,10.18
2022-12-18T12:36:22.761Z,10.55
2022-12-18T12:38:57.704Z,9.97
2022-12-18T12:41:48.337Z,8.60
2022-12-18T12:44:23.424Z,9.82
2022-12-18T12:46:54.876Z,9.23
2022-12-18T12:49:29.128Z,8.80
2022-12-18T12:52:07.588Z,10.10
2022-12-18T12:54:37.734Z,9.38
2022-12-18T12:57:15.156Z,11.98
2022-12-18T12:59:53.496Z,10.30
2022-12-18T13:02:31.309Z,10.38
2022-12-18T13:05:08.983Z,10.17
2022-12-18T13:07:43.655Z,9.30
2022-12-18T13:10:33.666Z,14.88
2022-12-18T13:13:04.884Z,15.10
2022-12-18T13:15:40.273Z,12.05
2022-12-18T13:18:21.788Z,11.93
2022-12-18T13:20:59.770Z,11.63
2022-12-18T13:23:41.669Z,13.68
2022-12-18T13:26:35.457Z,11.70
2022-12-18T13:29:10.737Z,14.38
2022-12-18T13:32:22.441Z,14.47
2022-12-18T13:35:42.984Z,14.77
2022-12-18T13:38:24.646Z,12.68
2022-12-18T13:40:59.118Z,15.32
2022-12-18T13:43:44.035Z,13.88
2022-12-18T13:46:27.049Z,11.33
2022-12-18T13:49:01.935Z,10.75
2022-12-18T13:51:34.290Z,13.20
2022-12-18T13:54:04.931Z,13.38
2022-12-18T13:56:35.910Z,14.63
2022-12-18T13:59:24.535Z,12.17
2022-12-18T14:01:57.889Z,14.90
2022-12-18T14:04:30.091Z,14.90
2022-12-18T14:07:04.391Z,12.80
2022-12-18T14:09:37.335Z,14.48
2022-12-18T14:12:26.288Z,12.70
2022-12-18T14:14:56.035Z,16.20
2022-12-18T14:17:26.336Z,16.20
2022-12-18T14:19:55.175Z,12.88
2022-12-18T14:22:28.925Z,11.68
2022-12-18T14:25:17.915Z,11.47
2022-12-18T14:27:49.692Z,13.15
2022-12-18T14:30:30.539Z,11.57
2022-12-18T14:33:05.588Z,12.85
2022-12-18T14:35:35.667Z,13.65
2022-12-18T14:38:25.401Z,12.93
2022-12-18T14:41:01.931Z,12.32
2022-12-18T14:43:34.345Z,11.88
2022-12-18T14:46:04.213Z,12.23
2022-12-18T14:48:41.054Z,11.77
2022-12-18T14:51:18.002Z,9.57
2022-12-18T14:53:53.981Z,12.75
2022-12-18T14:56:26.035Z,11.48
2022-12-18T14:58:58.228Z,11.98
2022-12-18T15:01:30.691Z,12.25
2022-12-18T15:04:02.806Z,13.73
2022-12-18T15:06:35.840Z,13.45
2022-12-18T15:09:08.622Z,13.90
2022-12-18T15:11:48.444Z,12.98
2022-12-18T15:14:40.570Z,12.35
2022-12-18T15:17:20.106Z,13.13
2022-12-18T15:19:52.864Z,12.45
2022-12-18T15:22:28.560Z,10.63
2022-12-18T15:24:58.489Z,9.85
2022-12-18T15:27:36.924Z,9.25
2022-12-18T15:30:22.068Z,10.90
2022-12-18T15:32:51.423Z,12.65
2022-12-18T15:35:24.506Z,12.85
2022-12-18T15:37:54.298Z,12.68
2022-12-18T15:40:25.844Z,10.30
2022-12-18T15:43:28.538Z,9.97
2022-12-18T15:45:57.307Z,12.20
2022-12-18T15:48:25.828Z,13.27
2022-12-18T15:50:59.435Z,15.10
2022-12-18T15:53:33.183Z,12.70
2022-12-18T15:56:19.468Z,11.40
2022-12-18T15:58:48.838Z,11.55
2022-12-18T16:01:18.199Z,9.65
2022-12-18T16:03:46.879Z,9.55
2022-12-18T16:06:16.775Z,11.15
2022-12-18T16:08:45.488Z,9.20
2022-12-18T16:11:39.088Z,9.32
2022-12-18T16:14:17.775Z,10.40
2022-12-18T16:16:46.981Z,12.13
2022-12-18T16:19:15.659Z,12.90
2022-12-18T16:21:45.984Z,16.37
2022-12-18T16:24:18.398Z,11.82
2022-12-18T16:26:47.163Z,15.82
2022-12-18T16:29:15.950Z,15.80
2022-12-18T16:31:44.669Z,11.70
2022-12-18T16:34:23.205Z,13.57
2022-12-18T16:37:04.852Z,19.83
2022-12-18T16:39:35.477Z,18.90
2022-12-18T16:42:06.296Z,13.90
2022-12-18T16:44:35.112Z,12.32
2022-12-18T16:47:04.784Z,18.73
2022-12-18T16:49:33.478Z,21.65
2022-12-18T16:52:04.279Z,16.55
2022-12-18T16:54:33.954Z,15.00
2022-12-18T16:57:02.636Z,15.68
2022-12-18T16:59:31.475Z,14.97
2022-12-18T17:02:00.744Z,19.67
2022-12-18T17:04:29.331Z,20.40
2022-12-18T17:06:57.854Z,18.73
2022-12-18T17:09:27.926Z,15.15
2022-12-18T17:11:57.227Z,20.33
2022-12-18T17:14:27.129Z,17.75
2022-12-18T17:17:20.219Z,15.00
2022-12-18T17:19:45.786Z,13.95
2022-12-18T17:22:14.261Z,13.75
2022-12-18T17:24:44.158Z,13.57
2022-12-18T17:27:12.713Z,17.27
2022-12-18T17:29:47.445Z,17.35
2022-12-18T17:32:17.278Z,13.20
2022-12-18T17:34:45.838Z,15.38
2022-12-18T17:37:14.559Z,13.33
2022-12-18T17:39:44.679Z,15.65
2022-12-18T17:42:14.835Z,15.27
2022-12-18T17:44:44.225Z,18.05
2022-12-18T17:47:13.169Z,16.17
2022-12-18T17:49:42.627Z,17.33
2022-12-18T17:52:11.777Z,15.70
2022-12-18T17:54:42.423Z,15.65
2022-12-18T17:57:12.612Z,16.75
2022-12-18T17:59:41.084Z,17.70
2022-12-18T18:02:13.027Z,20.10
2022-12-18T18:04:42.842Z,16.52
2022-12-18T18:07:11.335Z,17.80
2022-12-18T18:09:39.894Z,19.83
2022-12-18T18:12:27.031Z,18.67
2022-12-18T18:14:57.039Z,16.57
2022-12-18T18:17:26.197Z,15.07
2022-12-18T18:19:54.980Z,15.82
2022-12-18T18:22:23.497Z,13.02
2022-12-18T18:24:53.232Z,14.50
2022-12-18T18:27:21.714Z,12.73
2022-12-18T18:29:50.495Z,15.00
2022-12-18T18:32:20.458Z,13.07
2022-12-18T18:34:49.583Z,11.80
2022-12-18T18:37:18.090Z,15.45
2022-12-18T18:39:46.555Z,17.13
2022-12-18T18:42:15.239Z,18.38
2022-12-18T18:44:48.743Z,17.48
2022-12-18T18:47:19.329Z,17.73
2022-12-18T18:49:48.197Z,13.80
2022-12-18T18:52:16.724Z,15.77
2022-12-18T18:55:11.183Z,12.70
2022-12-18T18:57:34.896Z,12.70
2022-12-18T19:00:03.623Z,10.90
2022-12-18T19:02:33.578Z,12.50
2022-12-18T19:05:02.223Z,11.40
2022-12-18T19:07:31.385Z,11.88
2022-12-18T19:10:07.246Z,12.55
2022-12-18T19:12:53.883Z,11.75
2022-12-18T19:15:22.746Z,11.07
2022-12-18T19:17:53.167Z,12.60
2022-12-18T19:20:21.755Z,11.45
2022-12-18T19:22:55.365Z,12.05
2022-12-18T19:25:38.595Z,12.38
2022-12-18T19:28:21.232Z,11.65
2022-12-18T19:30:55.340Z,12.70
2022-12-18T19:33:45.879Z,12.80
2022-12-18T19:36:20.302Z,13.23
2022-12-18T19:38:49.633Z,12.65
2022-12-18T19:41:19.735Z,11.68
2022-12-18T19:43:49.795Z,11.93
2022-12-18T19:46:21.140Z,9.65
2022-12-18T19:48:52.018Z,11.63
2022-12-18T19:51:23.120Z,12.07
2022-12-18T19:53:58.076Z,12.63
2022-12-18T19:56:29.924Z,11.17
2022-12-18T19:58:58.460Z,10.35
2022-12-18T20:01:29.608Z,10.57
2022-12-18T20:04:00.349Z,10.80
2022-12-18T20:06:32.356Z,11.20
2022-12-18T20:09:03.651Z,11.03
2022-12-18T20:11:32.278Z,10.13
2022-12-18T20:14:03.614Z,11.65
2022-12-18T20:16:32.211Z,10.10
2022-12-18T20:19:02.255Z,13.35
2022-12-18T20:21:31.247Z,14.60
2022-12-18T20:24:00.214Z,14.27
2022-12-18T20:26:28.973Z,12.38
2022-12-18T20:28:57.922Z,15.38
2022-12-18T20:31:26.893Z,15.60
2022-12-18T20:34:01.721Z,15.97
2022-12-18T20:36:35.139Z,14.60
2022-12-18T20:39:07.648Z,14.07
2022-12-18T20:41:39.106Z,13.57
2022-12-18T20:44:21.397Z,12.52
2022-12-18T20:46:56.953Z,13.83
2022-12-18T20:49:27.641Z,14.75
2022-12-18T20:51:59.735Z,14.80
2022-12-18T20:54:29.193Z,12.13
2022-12-18T20:56:58.644Z,11.90
2022-12-18T20:59:27.271Z,12.47
2022-12-18T21:01:56.237Z,11.02
2022-12-18T21:04:25.630Z,12.88
2022-12-18T21:07:02.310Z,12.65
2022-12-18T21:09:37.709Z,15.80
2022-12-18T21:12:29.163Z,14.03
2022-12-18T21:14:59.603Z,12.68
2022-12-18T21:17:28.499Z,11.75
2022-12-18T21:19:58.151Z,11.40
2022-12-18T21:22:28.470Z,10.23
2022-12-18T21:24:57.437Z,10.07
2022-12-18T21:27:25.960Z,11.45
2022-12-18T21:29:54.471Z,11.20
2022-12-18T21:32:23.982Z,12.98
2022-12-18T21:34:54.576Z,13.80
2022-12-18T21:37:23.097Z,11.50
2022-12-18T21:39:53.327Z,12.40
2022-12-18T21:42:53.877Z,13.40
2022-12-18T21:45:22.361Z,12.48
2022-12-18T21:47:50.879Z,11.93
2022-12-18T21:50:19.785Z,10.17
2022-12-18T21:52:48.248Z,9.93
2022-12-18T21:55:18.635Z,10.55
2022-12-18T21:57:47.559Z,9.55
2022-12-18T22:00:19.135Z,9.35
2022-12-18T22:03:17.684Z,11.40
2022-12-18T22:05:38.275Z,9.77
2022-12-18T22:08:07.876Z,9.70
2022-12-18T22:10:38.837Z,10.20
2022-12-18T22:13:10.079Z,13.70
2022-12-18T22:15:38.633Z,15.03
2022-12-18T22:18:07.222Z,17.33
2022-12-18T22:20:35.726Z,13.95
2022-12-18T22:23:05.978Z,11.30
2022-12-18T22:25:38.931Z,16.23
2022-12-18T22:28:27.261Z,13.30
2022-12-18T22:30:59.488Z,11.23
2022-12-18T22:33:28.944Z,14.48
2022-12-18T22:35:57.467Z,14.10
2022-12-18T22:38:26.285Z,14.85
2022-12-18T22:40:56.020Z,13.77
2022-12-18T22:43:26.063Z,11.70
2022-12-18T22:45:54.854Z,11.32
2022-12-18T22:48:23.402Z,11.48
2022-12-18T22:50:53.456Z,11.82
2022-12-18T22:53:27.657Z,10.60
2022-12-18T22:56:02.397Z,10.18
2022-12-18T22:58:32.272Z,9.75
2022-12-18T23:01:01.220Z,9.77
2022-12-18T23:03:29.916Z,10.20
2022-12-18T23:06:08.103Z,9.80
2022-12-18T23:08:36.879Z,10.00
2022-12-18T23:11:06.616Z,9.95
2022-12-18T23:13:37.387Z,8.43
2022-12-18T23:16:08.171Z,8.25
2022-12-18T23:18:37.343Z,8.43
2022-12-18T23:21:07.464Z,10.57
2022-12-18T23:23:38.368Z,11.70
2022-12-18T23:26:10.844Z,12.68
2022-12-18T23:28:41.754Z,13.55
2022-12-18T23:31:17.046Z,12.73
2022-12-18T23:33:47.204Z,12.20
2022-12-18T23:36:17.082Z,11.82
2022-12-18T23:38:50.551Z,10.75
2022-12-18T23:41:21.982Z,8.55
2022-12-18T23:43:52.660Z,7.87
2022-12-18T23:46:24.284Z,8.48
2022-12-18T23:48:53.979Z,9.63
2022-12-18T23:51:25.933Z,8.75
2022-12-18T23:53:55.343Z,9.43
2022-12-18T23:56:24.600Z,8.90
2022-12-18T23:58:54.547Z,8.60
